Time;durP1;ratioP1;P1;durP2;ratioP2;P2;SDS_P1;SDS_P2;PMS_P1;PMS_P2;Temp;Humidity;BMP_temperature;BMP_pressure;BME280_temperature;BME280_humidity;BME280_pressure;Samples;Min_cycle;Max_cycle;Signal;HPM_P1;HPM_P2
2022/08/01 00:00:39;;;;;;;61.80;50.83;;;25.70;56.50;;;;;;4936855;28;91169;-52
2022/08/01 00:03:05;;;;;;;61.60;50.80;;;25.70;56.50;;;;;;4945929;28;94847;-53
2022/08/01 00:05:31;;;;;;;61.47;51.15;;;25.70;56.50;;;;;;4932217;28;97285;-56
2022/08/01 00:07:57;;;;;;;62.47;51.08;;;25.70;57.00;;;;;;4946261;28;89738;-55
2022/08/01 00:10:22;;;;;;;62.83;51.15;;;25.70;56.50;;;;;;4934938;28;90712;-55
2022/08/01 00:12:48;;;;;;;60.75;50.90;;;25.70;56.50;;;;;;4944729;28;94639;-54
2022/08/01 00:15:16;;;;;;;62.47;51.13;;;25.70;56.60;;;;;;4946998;28;89256;-54
2022/08/01 00:17:42;;;;;;;62.78;51.17;;;25.70;56.60;;;;;;4941870;28;92668;-53
2022/08/01 00:20:11;;;;;;;61.20;50.78;;;25.70;56.50;;;;;;4934814;28;91859;-54
2022/08/01 00:22:37;;;;;;;61.00;50.85;;;25.70;56.60;;;;;;4947729;28;90850;-52
2022/08/01 00:25:05;;;;;;;63.05;50.65;;;25.70;56.60;;;;;;4944762;28;89995;-54
2022/08/01 00:27:31;;;;;;;61.90;50.85;;;25.60;56.40;;;;;;4940875;28;90941;-53
2022/08/01 00:29:57;;;;;;;61.20;50.70;;;25.70;56.40;;;;;;4945604;28;90570;-55
2022/08/01 00:32:23;;;;;;;61.40;50.83;;;25.70;56.40;;;;;;4942405;28;95861;-54
2022/08/01 00:34:49;;;;;;;62.95;51.15;;;25.70;56.40;;;;;;4948539;28;91617;-52
2022/08/01 00:37:14;;;;;;;61.35;50.92;;;25.70;56.40;;;;;;4943287;28;89932;-55
2022/08/01 00:39:40;;;;;;;60.90;50.90;;;25.60;56.40;;;;;;4936409;28;93365;-53
2022/08/01 00:42:07;;;;;;;61.08;50.97;;;25.60;56.50;;;;;;4943001;28;91285;-55
2022/08/01 00:44:34;;;;;;;61.25;50.85;;;25.60;56.40;;;;;;4946450;28;90059;-55
2022/08/01 00:46:59;;;;;;;60.88;50.83;;;25.70;56.50;;;;;;4941481;28;91692;-55
2022/08/01 00:49:25;;;;;;;63.30;51.08;;;25.60;56.40;;;;;;4937449;28;91860;-56
2022/08/01 00:51:51;;;;;;;61.83;51.17;;;25.70;56.40;;;;;;4950374;28;89801;-56
2022/08/01 00:54:17;;;;;;;61.00;50.80;;;25.60;56.40;;;;;;4941381;28;94761;-53
2022/08/01 00:56:43;;;;;;;61.78;51.22;;;25.60;56.30;;;;;;4949792;28;89738;-54
2022/08/01 00:59:10;;;;;;;62.95;50.92;;;25.60;56.50;;;;;;4935527;28;90570;-56
2022/08/01 01:01:36;;;;;;;61.67;51.25;;;25.60;56.50;;;;;;4946666;28;90059;-55
2022/08/01 01:04:02;;;;;;;61.40;51.25;;;25.60;56.40;;;;;;4939286;28;92726;-56
2022/08/01 01:07:04;;;;;;;62.45;50.97;;;25.60;56.50;;;;;;4936538;28;90635;-52
2022/08/01 01:09:44;;;;;;;61.47;51.15;;;25.60;56.60;;;;;;4935100;28;95770;-54
2022/08/01 01:12:22;;;;;;;61.85;51.35;;;25.60;56.50;;;;;;4935076;28;90978;-56
2022/08/01 01:14:56;;;;;;;61.35;51.17;;;25.60;56.40;;;;;;4937893;28;90071;-53
2022/08/01 01:17:29;;;;;;;61.97;51.50;;;25.60;56.50;;;;;;4939108;28;92458;-55
2022/08/01 01:19:59;;;;;;;61.38;50.97;;;25.60;56.60;;;;;;4937781;28;90448;-55
2022/08/01 01:22:47;;;;;;;62.03;51.00;;;25.60;56.50;;;;;;4937005;28;89717;-56
2022/08/01 01:25:36;;;;;;;61.40;50.97;;;25.60;56.60;;;;;;4939531;28;90443;-54
2022/08/01 01:28:27;;;;;;;61.45;51.22;;;25.60;56.70;;;;;;4943627;28;91209;-55
2022/08/01 01:30:56;;;;;;;63.38;51.38;;;25.60;56.60;;;;;;4943494;28;90088;-49
2022/08/01 01:33:25;;;;;;;62.05;51.20;;;25.60;56.60;;;;;;4941880;28;90183;-53
2022/08/01 01:35:57;;;;;;;61.38;51.10;;;25.60;56.60;;;;;;4943026;28;91954;-55
2022/08/01 01:38:31;;;;;;;62.35;51.13;;;25.60;56.60;;;;;;4936983;28;90492;-50
2022/08/01 01:40:58;;;;;;;61.28;50.90;;;25.60;56.50;;;;;;4942722;28;95742;-54
2022/08/01 01:43:26;;;;;;;61.35;50.75;;;25.60;56.60;;;;;;4943280;28;90695;-54
2022/08/01 01:45:53;;;;;;;61.42;51.05;;;25.60;56.60;;;;;;4932028;28;91653;-55
2022/08/01 01:48:20;;;;;;;63.40;51.45;;;25.60;56.60;;;;;;4940412;28;91846;-55
2022/08/01 01:50:47;;;;;;;62.97;51.75;;;25.60;56.60;;;;;;4938703;28;94575;-56
2022/08/01 01:53:17;;;;;;;61.95;51.35;;;25.60;56.60;;;;;;4938040;28;90835;-54
2022/08/01 01:55:46;;;;;;;63.35;51.60;;;25.60;56.60;;;;;;4939147;28;90057;-51
2022/08/01 01:58:13;;;;;;;63.20;50.95;;;25.60;56.60;;;;;;4934166;28;90297;-48
2022/08/01 02:00:40;;;;;;;63.15;51.63;;;25.60;56.50;;;;;;4939246;28;89970;-56
2022/08/01 02:03:08;;;;;;;62.45;51.15;;;25.60;56.60;;;;;;4937562;28;91247;-54
2022/08/01 02:05:37;;;;;;;61.75;50.85;;;25.60;56.70;;;;;;4936152;28;90086;-55
2022/08/01 02:08:04;;;;;;;62.17;51.35;;;25.60;56.60;;;;;;4935167;28;90157;-55
2022/08/01 02:10:31;;;;;;;62.13;51.58;;;25.50;56.60;;;;;;4943705;28;92164;-56
2022/08/01 02:13:03;;;;;;;62.65;51.20;;;25.60;56.60;;;;;;4934440;28;90159;-55
2022/08/01 02:15:31;;;;;;;61.35;51.20;;;25.60;56.60;;;;;;4936820;28;91092;-53
2022/08/01 02:17:57;;;;;;;64.47;51.55;;;25.60;56.60;;;;;;4950332;28;91538;-54
2022/08/01 02:20:26;;;;;;;62.50;51.25;;;25.60;56.70;;;;;;4950186;28;89357;-54
2022/08/01 02:23:11;;;;;;;63.22;51.47;;;25.60;56.60;;;;;;4944919;28;89506;-55
2022/08/01 02:25:43;;;;;;;62.28;51.83;;;25.60;56.60;;;;;;4951379;28;89667;-55
2022/08/01 02:28:28;;;;;;;62.58;51.45;;;25.50;56.60;;;;;;4942203;28;91231;-53
2022/08/01 02:30:59;;;;;;;60.92;50.90;;;25.50;56.70;;;;;;4942065;28;92494;-54
2022/08/01 02:33:34;;;;;;;63.30;51.85;;;25.50;56.70;;;;;;4945260;28;92762;-54
2022/08/01 02:36:02;;;;;;;61.90;51.45;;;25.50;56.60;;;;;;4943732;28;91146;-55
2022/08/01 02:38:32;;;;;;;62.00;51.22;;;25.50;56.70;;;;;;4943689;28;90206;-56
2022/08/01 02:41:02;;;;;;;61.95;51.22;;;25.50;56.60;;;;;;4942496;28;90519;-53
2022/08/01 02:43:30;;;;;;;61.58;51.17;;;25.50;56.60;;;;;;4943935;28;97071;-50
2022/08/01 02:46:01;;;;;;;61.92;51.22;;;25.60;56.70;;;;;;4954362;28;89735;-56
2022/08/01 02:48:28;;;;;;;62.47;51.25;;;25.50;56.70;;;;;;4943434;28;91692;-55
2022/08/01 02:50:56;;;;;;;62.25;51.22;;;25.50;56.70;;;;;;4924749;28;89811;-54
2022/08/01 02:53:24;;;;;;;61.08;51.17;;;25.50;56.70;;;;;;4942783;28;91278;-55
2022/08/01 02:55:52;;;;;;;61.50;50.85;;;25.50;56.70;;;;;;4951223;28;89898;-51
2022/08/01 02:58:21;;;;;;;62.67;51.53;;;25.50;56.70;;;;;;4941690;28;90152;-51
2022/08/01 03:00:47;;;;;;;62.90;51.50;;;25.50;56.70;;;;;;4942875;28;91967;-53
2022/08/01 03:03:15;;;;;;;62.80;51.78;;;25.50;56.60;;;;;;4942908;28;89789;-54
2022/08/01 03:05:42;;;;;;;62.13;51.50;;;25.50;56.70;;;;;;4952256;28;89508;-56
2022/08/01 03:08:10;;;;;;;62.05;51.78;;;25.50;56.80;;;;;;4944872;28;90444;-55
2022/08/01 03:10:40;;;;;;;62.35;51.40;;;25.50;56.60;;;;;;4936719;28;90497;-56
2022/08/01 03:13:08;;;;;;;61.75;51.35;;;25.50;56.60;;;;;;4941796;28;90441;-52
2022/08/01 03:15:37;;;;;;;61.70;51.30;;;25.50;56.80;;;;;;4944412;28;91815;-53
2022/08/01 03:18:05;;;;;;;61.88;51.53;;;25.50;56.90;;;;;;4946690;28;91128;-52
2022/08/01 03:20:33;;;;;;;65.57;52.10;;;25.40;56.80;;;;;;4946119;28;90836;-55
2022/08/01 03:23:06;;;;;;;62.83;51.80;;;25.40;56.80;;;;;;4949910;28;90461;-56
2022/08/01 03:25:34;;;;;;;65.25;52.17;;;25.50;56.70;;;;;;4948105;28;90665;-55
2022/08/01 03:28:04;;;;;;;62.00;51.42;;;25.50;56.70;;;;;;4942727;28;95129;-54
2022/08/01 03:30:32;;;;;;;62.47;51.70;;;25.50;56.80;;;;;;4937752;28;91788;-55
2022/08/01 03:32:58;;;;;;;62.92;52.50;;;25.40;56.80;;;;;;4937409;28;90593;-52
2022/08/01 03:35:29;;;;;;;62.40;51.90;;;25.50;56.80;;;;;;4946833;28;92066;-54
2022/08/01 03:37:56;;;;;;;62.45;51.67;;;25.40;56.80;;;;;;4944288;28;93866;-53
2022/08/01 03:40:28;;;;;;;65.45;52.60;;;25.40;56.80;;;;;;4935210;28;90522;-55
2022/08/01 03:43:07;;;;;;;63.20;52.08;;;25.40;56.80;;;;;;4947727;28;90793;-53
2022/08/01 03:45:37;;;;;;;65.63;52.25;;;25.40;56.80;;;;;;4933283;28;89685;-55
2022/08/01 03:48:10;;;;;;;63.95;52.80;;;25.40;56.80;;;;;;4944621;28;92014;-52
2022/08/01 03:50:38;;;;;;;64.65;51.95;;;25.40;56.80;;;;;;4941420;28;90272;-53
2022/08/01 03:53:06;;;;;;;61.67;51.50;;;25.40;56.80;;;;;;4940049;28;90520;-52
2022/08/01 03:55:34;;;;;;;62.90;51.75;;;25.50;56.80;;;;;;4938520;28;98671;-51
2022/08/01 03:58:01;;;;;;;62.72;52.05;;;25.40;56.80;;;;;;4945130;28;90329;-54
2022/08/01 04:00:27;;;;;;;65.35;51.75;;;25.40;56.80;;;;;;4943875;28;89902;-52
2022/08/01 04:02:53;;;;;;;63.45;51.85;;;25.40;56.90;;;;;;4949408;28;89598;-51
2022/08/01 04:05:19;;;;;;;64.45;52.58;;;25.50;56.90;;;;;;4938976;28;94033;-54
2022/08/01 04:07:55;;;;;;;63.83;51.92;;;25.40;56.80;;;;;;4942888;28;94712;-55
2022/08/01 04:10:24;;;;;;;62.75;51.67;;;25.40;57.00;;;;;;4946615;28;90890;-52
2022/08/01 04:12:50;;;;;;;61.67;51.70;;;25.40;57.00;;;;;;4943262;28;89801;-55
2022/08/01 04:15:16;;;;;;;62.50;52.03;;;25.40;57.00;;;;;;4949753;28;90211;-54
2022/08/01 04:17:42;;;;;;;62.63;52.17;;;25.40;57.10;;;;;;4940777;28;91048;-54
2022/08/01 04:20:08;;;;;;;62.28;51.67;;;25.40;57.00;;;;;;4937875;28;90140;-55
2022/08/01 04:22:35;;;;;;;61.90;51.63;;;25.40;57.10;;;;;;4940105;28;95712;-53
2022/08/01 04:25:03;;;;;;;62.97;52.38;;;25.40;57.00;;;;;;4937715;28;90657;-52
2022/08/01 04:27:32;;;;;;;63.17;51.78;;;25.40;57.00;;;;;;4951655;28;95281;-55
2022/08/01 04:29:59;;;;;;;62.83;52.65;;;25.40;57.10;;;;;;4942505;28;89488;-51
2022/08/01 04:32:30;;;;;;;62.05;51.88;;;25.40;57.10;;;;;;4935796;28;91459;-54
2022/08/01 04:34:58;;;;;;;62.80;52.35;;;25.40;57.10;;;;;;4933736;28;91370;-52
2022/08/01 04:37:25;;;;;;;62.75;52.50;;;25.40;57.00;;;;;;4945020;28;89672;-54
2022/08/01 04:39:53;;;;;;;63.63;52.20;;;25.40;57.10;;;;;;4945856;28;95731;-54
2022/08/01 04:42:19;;;;;;;65.35;53.20;;;25.40;57.20;;;;;;4942998;28;91629;-54
2022/08/01 04:44:45;;;;;;;62.58;52.08;;;25.30;57.10;;;;;;4937955;28;90663;-53
2022/08/01 04:47:13;;;;;;;62.90;52.70;;;25.40;57.20;;;;;;4939025;28;93637;-54
2022/08/01 04:49:39;;;;;;;62.58;51.95;;;25.40;57.20;;;;;;4928888;28;92489;-54
2022/08/01 04:52:06;;;;;;;63.45;53.08;;;25.40;57.10;;;;;;4939466;28;93615;-53
2022/08/01 04:54:33;;;;;;;64.03;53.58;;;25.30;57.20;;;;;;4943059;28;89985;-52
2022/08/01 04:57:00;;;;;;;63.53;51.92;;;25.30;57.10;;;;;;4944737;28;91663;-51
2022/08/01 04:59:40;;;;;;;66.00;53.90;;;25.40;57.30;;;;;;4941186;28;91302;-55
2022/08/01 05:02:18;;;;;;;67.82;55.22;;;25.40;57.20;;;;;;4938502;28;92323;-55
2022/08/01 05:04:45;;;;;;;69.85;55.10;;;25.30;57.20;;;;;;4942071;28;89990;-50
2022/08/01 05:07:12;;;;;;;63.30;52.95;;;25.30;57.20;;;;;;4925467;28;93582;-54
2022/08/01 05:09:38;;;;;;;66.97;54.20;;;25.30;57.40;;;;;;4940643;28;92300;-52
2022/08/01 05:12:05;;;;;;;65.38;53.65;;;25.30;57.50;;;;;;4950539;28;91763;-53
2022/08/01 05:14:32;;;;;;;66.88;55.00;;;25.30;57.60;;;;;;4946366;28;89625;-52
2022/08/01 05:17:03;;;;;;;63.72;51.90;;;25.20;57.60;;;;;;4936247;28;91073;-55
2022/08/01 05:19:33;;;;;;;65.55;51.97;;;25.30;57.80;;;;;;4937732;28;91005;-51
2022/08/01 05:22:04;;;;;;;66.38;52.97;;;25.20;57.70;;;;;;4933241;28;90966;-50
2022/08/01 05:24:31;;;;;;;65.45;53.50;;;25.20;58.00;;;;;;4939432;28;91227;-55
2022/08/01 05:26:57;;;;;;;63.95;52.50;;;25.30;58.00;;;;;;4937343;28;90077;-52
2022/08/01 05:29:24;;;;;;;73.82;53.15;;;25.20;58.00;;;;;;4943188;28;90958;-57
2022/08/01 05:31:51;;;;;;;79.45;59.72;;;25.30;58.40;;;;;;4930360;28;91297;-55
2022/08/01 05:34:17;;;;;;;76.63;59.72;;;25.30;59.90;;;;;;4931136;28;94493;-54
2022/08/01 05:36:43;;;;;;;72.25;55.97;;;24.90;63.80;;;;;;4945811;28;92797;-57
2022/08/01 05:39:08;;;;;;;82.13;57.40;;;24.60;64.20;;;;;;4942373;28;89918;-58
2022/08/01 05:41:36;;;;;;;70.88;55.60;;;24.70;64.10;;;;;;4936622;28;90325;-57
2022/08/01 05:44:02;;;;;;;77.05;56.85;;;24.70;64.10;;;;;;4932812;28;91224;-56
2022/08/01 05:46:30;;;;;;;73.47;56.55;;;24.70;64.60;;;;;;4942855;28;91438;-56
2022/08/01 05:48:56;;;;;;;76.80;57.13;;;24.70;64.70;;;;;;4921838;28;90866;-57
2022/08/01 05:51:22;;;;;;;77.55;56.80;;;24.60;64.60;;;;;;4946305;28;92064;-58
2022/08/01 05:53:48;;;;;;;76.85;55.65;;;24.70;64.50;;;;;;4943692;28;89997;-59
2022/08/01 05:56:13;;;;;;;78.60;57.63;;;24.70;64.50;;;;;;4946326;28;90693;-55
2022/08/01 05:58:41;;;;;;;74.05;56.65;;;24.70;64.30;;;;;;4942131;28;90696;-53
2022/08/01 06:01:07;;;;;;;78.25;57.30;;;24.60;64.30;;;;;;4940984;28;90254;-60
2022/08/01 06:03:33;;;;;;;78.82;57.33;;;24.50;64.30;;;;;;4941430;28;88802;-57
2022/08/01 06:06:00;;;;;;;72.88;56.80;;;24.50;64.60;;;;;;4934421;28;97182;-54
2022/08/01 06:08:26;;;;;;;72.32;56.38;;;24.50;64.90;;;;;;4942711;28;91533;-54
2022/08/01 06:10:54;;;;;;;76.28;56.40;;;24.40;65.00;;;;;;4953225;28;90968;-54
2022/08/01 06:13:20;;;;;;;79.05;56.85;;;24.40;65.10;;;;;;4940008;28;91781;-53
2022/08/01 06:15:46;;;;;;;73.50;55.88;;;24.40;65.50;;;;;;4950567;28;92588;-55
2022/08/01 06:18:12;;;;;;;72.78;54.90;;;24.40;65.50;;;;;;4940338;28;91066;-54
2022/08/01 06:20:38;;;;;;;71.78;54.88;;;24.30;65.70;;;;;;4938046;28;90946;-56
2022/08/01 06:23:03;;;;;;;70.05;54.95;;;24.20;65.80;;;;;;4944901;28;90280;-56
2022/08/01 06:25:29;;;;;;;74.05;55.60;;;24.20;65.80;;;;;;4943651;28;89925;-50
2022/08/01 06:27:55;;;;;;;68.72;54.17;;;24.10;66.50;;;;;;4935190;28;94572;-53
2022/08/01 06:30:21;;;;;;;71.18;54.53;;;24.00;67.00;;;;;;4951437;28;90043;-50
2022/08/01 06:32:47;;;;;;;67.60;54.40;;;24.00;67.00;;;;;;4953720;28;89627;-52
2022/08/01 06:35:13;;;;;;;74.90;55.25;;;24.00;67.20;;;;;;4947927;28;91846;-49
2022/08/01 06:37:39;;;;;;;68.57;54.25;;;24.00;67.10;;;;;;4935824;28;96674;-53
2022/08/01 06:40:08;;;;;;;71.15;54.88;;;23.90;67.40;;;;;;4942559;28;95188;-55
2022/08/01 06:42:37;;;;;;;71.15;54.63;;;23.90;67.30;;;;;;4951379;28;89751;-55
2022/08/01 06:45:07;;;;;;;71.53;54.40;;;23.90;67.40;;;;;;4945693;28;91021;-51
2022/08/01 06:47:33;;;;;;;72.50;54.60;;;23.90;67.50;;;;;;4940395;28;89920;-55
2022/08/01 06:49:59;;;;;;;70.15;53.97;;;24.00;67.50;;;;;;4942656;28;89815;-55
2022/08/01 06:52:25;;;;;;;71.78;53.47;;;23.90;67.20;;;;;;4942788;28;95320;-56
2022/08/01 06:54:51;;;;;;;65.80;53.60;;;24.00;67.00;;;;;;4946885;28;90449;-56
2022/08/01 06:57:17;;;;;;;66.45;53.33;;;24.00;67.30;;;;;;4945441;28;89629;-58
2022/08/01 06:59:43;;;;;;;64.25;52.28;;;24.00;67.40;;;;;;4950384;28;92068;-49
2022/08/01 07:02:09;;;;;;;66.57;54.30;;;24.00;68.00;;;;;;4943635;28;89893;-54
2022/08/01 07:04:34;;;;;;;70.93;54.03;;;24.10;67.80;;;;;;4955438;28;90713;-57
2022/08/01 07:07:00;;;;;;;69.68;54.63;;;24.10;67.70;;;;;;4952695;28;93033;-57
2022/08/01 07:09:26;;;;;;;66.75;54.03;;;24.00;68.00;;;;;;4944735;28;90826;-54
2022/08/01 07:11:52;;;;;;;67.88;54.50;;;24.00;67.50;;;;;;4949389;28;89914;-54
2022/08/01 07:14:18;;;;;;;66.20;53.83;;;24.10;67.50;;;;;;4944397;28;90218;-55
2022/08/01 07:16:44;;;;;;;68.18;53.63;;;24.10;67.30;;;;;;4947743;28;90031;-52
2022/08/01 07:19:10;;;;;;;67.28;54.65;;;24.20;67.10;;;;;;4950614;28;94088;-58
2022/08/01 07:21:36;;;;;;;65.80;53.40;;;24.30;67.10;;;;;;4945913;28;90214;-52
2022/08/01 07:24:01;;;;;;;68.45;54.78;;;24.20;67.20;;;;;;4942913;28;91164;-55
2022/08/01 07:26:27;;;;;;;66.25;54.05;;;24.20;67.40;;;;;;4948487;28;89845;-57
2022/08/01 07:28:53;;;;;;;68.00;54.33;;;24.10;67.60;;;;;;4946913;28;89933;-51
2022/08/01 07:31:19;;;;;;;65.32;54.65;;;24.10;68.00;;;;;;4946493;28;89985;-54
2022/08/01 07:33:45;;;;;;;66.97;54.40;;;24.00;68.00;;;;;;4943443;28;92074;-51
2022/08/01 07:36:11;;;;;;;64.03;52.70;;;24.00;68.90;;;;;;4946896;28;91872;-52
2022/08/01 07:38:36;;;;;;;66.60;53.35;;;24.00;68.60;;;;;;4940172;28;90993;-53
2022/08/01 07:41:02;;;;;;;63.35;52.40;;;24.10;67.90;;;;;;4938264;28;89935;-56
2022/08/01 07:43:29;;;;;;;62.38;52.22;;;24.20;67.50;;;;;;4933212;28;92209;-49
2022/08/01 07:45:54;;;;;;;63.50;52.35;;;24.20;66.50;;;;;;4946011;28;89632;-55
2022/08/01 07:48:23;;;;;;;61.90;51.75;;;24.10;67.00;;;;;;4939210;28;90785;-52
2022/08/01 07:50:50;;;;;;;62.42;51.33;;;24.20;66.60;;;;;;4933254;28;94814;-52
2022/08/01 07:53:16;;;;;;;61.75;51.63;;;24.40;66.50;;;;;;4931556;28;96363;-58
2022/08/01 07:55:41;;;;;;;61.53;51.33;;;24.40;65.60;;;;;;4938901;28;90320;-56
2022/08/01 07:58:07;;;;;;;62.97;51.53;;;24.40;64.70;;;;;;4941542;28;89963;-53
2022/08/01 08:00:34;;;;;;;59.70;50.72;;;24.30;64.60;;;;;;4950419;28;91374;-52
2022/08/01 08:02:59;;;;;;;60.53;50.67;;;24.30;65.00;;;;;;4942431;28;90274;-52
2022/08/01 08:05:28;;;;;;;60.42;50.67;;;24.40;66.10;;;;;;4939421;28;89888;-53
2022/08/01 08:07:54;;;;;;;62.30;51.15;;;24.40;65.50;;;;;;4934975;28;91293;-47
2022/08/01 08:10:19;;;;;;;61.05;50.83;;;24.40;64.70;;;;;;4931422;28;90562;-52
2022/08/01 08:12:46;;;;;;;61.35;50.55;;;24.30;64.70;;;;;;4944727;28;91227;-50
2022/08/01 08:15:12;;;;;;;63.08;50.85;;;24.40;63.70;;;;;;4932947;28;91786;-53
2022/08/01 08:17:38;;;;;;;60.42;50.55;;;24.40;63.90;;;;;;4939538;28;91310;-52
2022/08/01 08:20:09;;;;;;;61.45;50.83;;;24.40;63.90;;;;;;4941769;28;90079;-54
2022/08/01 08:22:35;;;;;;;61.78;50.83;;;24.40;63.50;;;;;;4948315;28;89714;-53
2022/08/01 08:25:00;;;;;;;61.67;50.95;;;24.50;63.80;;;;;;4937009;28;93393;-47
2022/08/01 08:27:26;;;;;;;61.10;50.67;;;24.50;63.20;;;;;;4940649;28;92076;-53
2022/08/01 08:29:52;;;;;;;61.38;50.67;;;24.70;63.30;;;;;;4939635;28;91192;-52
2022/08/01 08:32:17;;;;;;;61.38;50.67;;;24.70;62.10;;;;;;4936586;28;96828;-54
2022/08/01 08:34:43;;;;;;;61.45;50.55;;;24.70;61.40;;;;;;4937100;28;90978;-53
2022/08/01 08:37:09;;;;;;;59.97;50.53;;;24.60;61.20;;;;;;4942917;28;90767;-54
2022/08/01 08:39:35;;;;;;;61.15;50.67;;;24.70;61.20;;;;;;4943657;28;93155;-52
2022/08/01 08:42:05;;;;;;;60.95;50.80;;;24.70;61.30;;;;;;4943213;28;90976;-50
2022/08/01 08:44:31;;;;;;;62.88;50.95;;;24.70;60.90;;;;;;4934963;28;91542;-52
2022/08/01 08:47:00;;;;;;;61.45;50.60;;;24.80;61.00;;;;;;4938592;28;90917;-48
2022/08/01 08:49:28;;;;;;;61.13;50.75;;;24.80;61.00;;;;;;4947608;28;90097;-55
2022/08/01 08:51:58;;;;;;;61.67;50.85;;;24.90;60.90;;;;;;4933151;28;90517;-55
2022/08/01 08:54:25;;;;;;;61.50;50.60;;;24.90;60.10;;;;;;4939392;28;89991;-53
2022/08/01 08:56:54;;;;;;;62.45;50.63;;;24.80;58.90;;;;;;4931597;28;91225;-51
2022/08/01 08:59:20;;;;;;;61.40;50.63;;;24.80;59.30;;;;;;4944158;28;89855;-51
2022/08/01 09:01:47;;;;;;;62.83;50.72;;;24.80;58.90;;;;;;4947382;28;94719;-55
2022/08/01 09:04:13;;;;;;;63.53;50.80;;;24.80;58.60;;;;;;4937824;28;90434;-55
2022/08/01 09:06:40;;;;;;;60.53;50.70;;;24.80;58.70;;;;;;4936088;28;90694;-48
2022/08/01 09:09:08;;;;;;;61.05;50.53;;;24.90;58.40;;;;;;4934353;28;91530;-50
2022/08/01 09:11:34;;;;;;;61.67;50.80;;;24.90;59.10;;;;;;4941315;28;93228;-53
2022/08/01 09:14:34;;;;;;;60.90;51.10;;;24.90;58.80;;;;;;4936036;28;94283;-52
2022/08/01 09:17:10;;;;;;;60.53;50.67;;;25.00;57.70;;;;;;4935673;28;91807;-55
2022/08/01 09:19:48;;;;;;;63.63;50.97;;;24.80;59.10;;;;;;4946039;28;89859;-53
2022/08/01 09:22:20;;;;;;;60.92;50.63;;;24.90;58.00;;;;;;4945580;28;92859;-47
2022/08/01 09:25:05;;;;;;;62.88;50.58;;;25.00;58.40;;;;;;4945109;28;89630;-54
2022/08/01 09:27:31;;;;;;;61.70;51.20;;;25.00;58.10;;;;;;4943322;28;91863;-54
2022/08/01 09:30:11;;;;;;;61.65;50.90;;;25.00;58.50;;;;;;4940384;28;93626;-47
2022/08/01 09:33:00;;;;;;;62.10;51.03;;;25.10;57.30;;;;;;4931234;28;91744;-49
2022/08/01 09:35:28;;;;;;;62.35;50.85;;;25.00;58.10;;;;;;4932045;28;90153;-54
2022/08/01 09:38:22;;;;;;;62.35;51.10;;;25.20;57.40;;;;;;4937037;28;91092;-55
2022/08/01 09:40:50;;;;;;;61.97;51.08;;;25.20;58.20;;;;;;4934405;28;89741;-54
2022/08/01 09:43:16;;;;;;;69.13;51.58;;;25.20;57.70;;;;;;4940616;28;93059;-50
2022/08/01 09:45:42;;;;;;;62.78;50.95;;;25.20;57.90;;;;;;4950721;28;91871;-53
2022/08/01 09:48:08;;;;;;;70.55;51.60;;;25.20;57.60;;;;;;4934636;28;89875;-57
2022/08/01 09:50:45;;;;;;;68.03;51.55;;;25.20;58.10;;;;;;4940563;28;90795;-53
2022/08/01 09:53:11;;;;;;;62.15;51.22;;;25.30;58.30;;;;;;4940469;28;91637;-58
2022/08/01 09:55:38;;;;;;;62.55;51.35;;;25.30;58.10;;;;;;4927590;28;92051;-54
2022/08/01 09:58:04;;;;;;;62.50;51.28;;;25.30;57.60;;;;;;4939399;28;92793;-56
2022/08/01 10:00:31;;;;;;;62.05;51.30;;;25.30;57.40;;;;;;4930614;28;90615;-57
2022/08/01 10:02:58;;;;;;;66.90;51.17;;;25.40;57.10;;;;;;4935144;28;90697;-57
2022/08/01 10:05:35;;;;;;;61.78;50.78;;;25.40;57.00;;;;;;4929399;28;96034;-56
2022/08/01 10:08:05;;;;;;;63.28;51.13;;;25.30;57.10;;;;;;4942567;28;89519;-57
2022/08/01 10:10:31;;;;;;;63.72;51.35;;;25.30;57.30;;;;;;4928734;28;89703;-58
2022/08/01 10:12:59;;;;;;;63.63;51.60;;;25.30;57.60;;;;;;4948469;28;90469;-57
2022/08/01 10:15:26;;;;;;;64.75;52.08;;;25.30;57.70;;;;;;4944320;28;89622;-58
2022/08/01 10:17:58;;;;;;;65.32;52.15;;;25.40;58.00;;;;;;4942162;28;91967;-57
2022/08/01 10:20:30;;;;;;;68.30;52.38;;;25.30;58.00;;;;;;4941975;28;93398;-57
2022/08/01 10:22:59;;;;;;;65.40;52.17;;;25.40;58.20;;;;;;4945904;28;90136;-57
2022/08/01 10:25:28;;;;;;;65.70;52.00;;;25.40;58.20;;;;;;4941872;28;89779;-57
2022/08/01 10:27:56;;;;;;;65.05;52.13;;;25.40;58.20;;;;;;4941523;28;90365;-56
2022/08/01 10:30:21;;;;;;;66.55;52.22;;;25.40;58.20;;;;;;4942084;28;89907;-57
2022/08/01 10:32:48;;;;;;;67.22;52.22;;;25.40;58.20;;;;;;4943393;28;90822;-56
2022/08/01 10:35:17;;;;;;;68.00;52.17;;;25.40;58.20;;;;;;4941701;28;89957;-56
2022/08/01 10:37:45;;;;;;;66.63;52.60;;;25.40;58.20;;;;;;4944252;28;89781;-57
2022/08/01 10:40:14;;;;;;;67.65;52.50;;;25.50;58.20;;;;;;4941240;28;90120;-57
2022/08/01 10:42:45;;;;;;;64.03;52.05;;;25.50;58.20;;;;;;4949320;28;91686;-57
2022/08/01 10:45:14;;;;;;;64.82;52.58;;;25.40;58.10;;;;;;4940774;28;94828;-58
2022/08/01 10:48:01;;;;;;;66.05;51.90;;;25.50;58.20;;;;;;4945220;28;90356;-57
2022/08/01 10:50:46;;;;;;;65.03;52.15;;;25.50;58.20;;;;;;4942922;28;91520;-57
2022/08/01 10:53:22;;;;;;;65.95;52.17;;;25.50;58.20;;;;;;4955365;28;90078;-57
2022/08/01 10:56:10;;;;;;;65.88;52.03;;;25.60;58.10;;;;;;4947809;28;90173;-58
2022/08/01 10:58:40;;;;;;;64.60;52.10;;;25.60;58.00;;;;;;4944901;28;89918;-57
2022/08/01 11:01:28;;;;;;;64.20;52.15;;;25.60;57.90;;;;;;4945182;28;93762;-55
2022/08/01 11:04:00;;;;;;;65.10;52.25;;;25.60;57.90;;;;;;4939536;28;90270;-57
2022/08/01 11:06:36;;;;;;;63.40;51.92;;;25.60;58.10;;;;;;4947980;28;91416;-58
2022/08/01 11:09:11;;;;;;;63.85;52.13;;;25.60;57.90;;;;;;4939438;28;90625;-58
2022/08/01 11:12:02;;;;;;;64.38;52.10;;;25.60;58.00;;;;;;4945910;28;93718;-58
2022/08/01 11:14:27;;;;;;;;;;;25.60;58.70;;;;;;4940938;28;90142;-58
2022/08/01 11:16:53;;;;;;;62.75;51.75;;;25.60;58.10;;;;;;4951086;28;94022;-57
2022/08/01 11:19:19;;;;;;;65.55;51.95;;;25.60;58.10;;;;;;4938030;28;90072;-57
2022/08/01 11:21:56;;;;;;;63.97;51.80;;;25.60;58.10;;;;;;4950104;28;89559;-58
2022/08/01 11:24:46;;;;;;;62.83;51.75;;;25.60;58.10;;;;;;4944997;28;91366;-57
2022/08/01 11:27:22;;;;;;;63.83;51.92;;;25.60;58.10;;;;;;4944240;28;88902;-57
2022/08/01 11:30:13;;;;;;;63.00;51.85;;;25.60;58.00;;;;;;4944865;28;90160;-57
2022/08/01 11:32:57;;;;;;;64.25;52.08;;;25.60;58.00;;;;;;4936111;28;90033;-57
2022/08/01 11:35:26;;;;;;;64.00;52.13;;;25.70;58.00;;;;;;4943228;28;91658;-58
2022/08/01 11:37:55;;;;;;;63.53;52.10;;;25.70;57.90;;;;;;4948618;28;90903;-58
2022/08/01 11:40:27;;;;;;;64.15;51.90;;;25.70;57.90;;;;;;4943639;28;89913;-58
2022/08/01 11:43:15;;;;;;;63.45;52.08;;;25.70;57.90;;;;;;4936509;28;89943;-57
2022/08/01 11:45:52;;;;;;;62.67;51.65;;;25.70;57.90;;;;;;4941771;28;94908;-57
2022/08/01 11:48:20;;;;;;;63.75;51.88;;;25.70;58.00;;;;;;4944900;28;91830;-57
2022/08/01 11:50:46;;;;;;;64.40;51.70;;;25.80;57.90;;;;;;4941668;28;95048;-61
2022/08/01 11:53:14;;;;;;;65.70;52.15;;;25.80;57.90;;;;;;4944584;28;90148;-54
2022/08/01 11:55:47;;;;;;;62.80;51.70;;;25.80;58.00;;;;;;4943928;28;95052;-59
2022/08/01 11:58:12;;;;;;;63.35;51.92;;;26.00;58.10;;;;;;4933657;28;89861;-54
2022/08/01 12:00:39;;;;;;;64.22;52.00;;;26.10;58.00;;;;;;4931317;28;91234;-46
2022/08/01 12:03:06;;;;;;;62.80;51.67;;;26.20;56.70;;;;;;4941465;28;90371;-49
2022/08/01 12:05:34;;;;;;;64.25;52.03;;;26.20;55.50;;;;;;4930167;28;95080;-55
2022/08/01 12:08:01;;;;;;;63.10;51.92;;;26.30;55.20;;;;;;4937800;28;90112;-56
2022/08/01 12:10:32;;;;;;;65.18;52.15;;;26.40;55.30;;;;;;4943184;28;90023;-54
2022/08/01 12:13:05;;;;;;;63.78;51.83;;;26.50;55.50;;;;;;4940889;28;89824;-54
2022/08/01 12:15:36;;;;;;;63.80;51.95;;;26.50;55.50;;;;;;4935373;28;92373;-55
2022/08/01 12:18:05;;;;;;;62.13;51.47;;;26.50;54.70;;;;;;4927726;28;90602;-55
2022/08/01 12:20:36;;;;;;;64.25;51.83;;;26.50;52.40;;;;;;4946895;28;95288;-55
2022/08/01 12:23:08;;;;;;;62.63;51.42;;;26.40;53.50;;;;;;4947144;28;90825;-51
2022/08/01 12:25:35;;;;;;;64.18;52.05;;;26.50;53.70;;;;;;4938355;28;94467;-51
2022/08/01 12:28:06;;;;;;;64.65;51.83;;;26.50;53.40;;;;;;4939979;28;91846;-52
2022/08/01 12:30:36;;;;;;;63.25;51.85;;;26.50;53.40;;;;;;4944624;28;90000;-51
2022/08/01 12:33:04;;;;;;;65.73;52.00;;;26.60;53.30;;;;;;4938562;28;89918;-53
2022/08/01 12:35:31;;;;;;;63.88;51.83;;;26.70;53.30;;;;;;4946895;28;89968;-52
2022/08/01 12:38:00;;;;;;;63.60;52.03;;;26.70;52.80;;;;;;4937861;28;89590;-55